Weather observations for the past three days for
Columbia / Maury County
Imperial (Metric)
Date Time (cdt) Wind (mph) Vis. (mi.) Weather Sky Cond. Temperature (ºF) Relative Humidity Wind Chill (°F) Heat Index (°F) Pressure Precipitation (in)
Air Dwpt 6 hour altimeter (in) sea level (mb) 1 hr 3 hr 6 hr
Max. Min.
02 23:35 Calm 10.00 Fair CLR 77 77 100% 78 30.01 0.0
02 23:10 Calm 10.00 Fair CLR 77 77 100% 78 30.01 0.0
02 22:50 Calm 10.00 A Few Clouds FEW002 77 77 100% 78 30.02 0.0
02 22:35 Calm 10.00 Fair CLR 77 77 100% 78 30.02 0.0
02 22:10 Calm 10.00 A Few Clouds FEW003 78.8 77 94% 83 30.02 0.0
02 21:50 Calm 10.00 Fair CLR 78.8 78.8 100% 83 30.02 0.0
02 21:35 Calm 10.00 Fair CLR 78.8 78.8 100% 83 30.02 0.0
02 21:15 Calm 10.00 Fair CLR 78.8 78.8 100% 83 30.02 0.0
02 20:50 Calm 10.00 Fair CLR 80.6 80.6 100% 89 30.01 0.0
02 20:35 Calm 10.00 Fair CLR 82.4 80.6 94% 94 30.01 0.0
02 20:10 Calm 10.00 Fair CLR 82.4 80.6 94% 94 30 0.0
02 19:50 Calm 10.00 Fair CLR 84.2 78.8 84% 96 30 0.0
02 19:35 Calm 10.00 Fair CLR 86 77 75% 97 30 0.0
02 19:10 Calm 10.00 Fair CLR 89.6 73.4 59% 98 30 0.0
02 18:55 Calm 10.00 Fair CLR 89.6 75.2 63% 100 30 0.0
02 18:30 S 3 10.00 Fair CLR 93.2 68 44% 98 30 0.0
02 18:10 S 3 10.00 Fair CLR 95 66.2 39% 98 30 0.0
02 17:55 S 5 10.00 Fair CLR 95 66.2 39% 98 30 0.0
02 17:30 SW 3 10.00 Fair CLR 96.8 66.2 37% 100 30 0.0
02 17:10 Calm 10.00 Fair CLR 96.8 64.4 34% 99 30 0.0
02 16:55 S 5 10.00 Fair CLR 96.8 66.2 37% 100 30.01 0.0
02 16:30 Calm 10.00 A Few Clouds FEW100 96.8 66.2 37% 100 30.01 0.0
02 16:10 Calm 10.00 Fair CLR 96.8 64.4 34% 99 30.01 0.0
02 15:55 SW 5 10.00 Fair CLR 96.8 64.4 34% 99 30.01 0.0
02 15:30 SW 5 10.00 Fair CLR 96.8 66.2 37% 100 30.02 0.0
02 15:10 Vrbl 6 10.00 Fair CLR 96.8 66.2 37% 100 30.03 0.0
02 14:55 S 7 10.00 Fair CLR 96.8 66.2 37% 100 30.03 0.0
02 14:30 Vrbl 3 10.00 A Few Clouds FEW060 96.8 66.2 37% 100 30.04 0.0
02 14:10 NE 5 10.00 A Few Clouds FEW060 96.8 66.2 37% 100 30.05 0.0
02 13:55 Calm 10.00 Fair CLR 95 66.2 39% 98 30.05 0.0
02 13:30 Calm 10.00 Fair CLR 95 66.2 39% 98 30.06 0.0
02 13:10 Vrbl 5 10.00 A Few Clouds FEW055 95 66.2 39% 98 30.07 0.0
02 12:55 Vrbl 5 10.00 A Few Clouds FEW055 95 66.2 39% 98 30.07 0.0
02 12:30 Calm 10.00 Fair CLR 95 66.2 39% 98 30.08 0.0
02 12:10 Vrbl 5 10.00 Fair CLR 93.2 66.2 41% 96 30.09 0.0
02 11:55 Calm 10.00 Fair CLR 93.2 68 44% 98 30.1 0.0
02 11:30 S 5 10.00 Fair CLR 93.2 68 44% 98 30.11 0.0
02 11:10 Calm 10.00 Fair CLR 93.2 68 44% 98 30.11 0.0
02 10:55 Calm 9.00 Fair CLR 91.4 66.2 44% 94 30.11 0.0
02 10:30 Calm 8.00 Fair CLR 91.4 69.8 49% 97 30.12 0.0
02 10:10 Calm 9.00 Fair CLR 89.6 71.6 55% 96 30.12 0.0
02 09:55 Calm 10.00 Fair CLR 87.8 71.6 59% 94 30.12 0.0
02 09:30 Calm 10.00 Fair CLR 86 73.4 66% 93 30.11 0.0
02 09:10 Calm 9.00 Fair CLR 84.2 77 79% 94 30.11 0.0
02 08:55 Calm 7.00 Fair CLR 80.6 78.8 94% 88 30.11 0.0
02 08:30 Calm 6.00 Fog/Mist CLR 78.8 77 94% 83 30.11 0.0
02 08:10 Calm 6.00 Fog/Mist CLR 75.2 75.2 100% 73 30.11 0.0
02 07:55 Calm 6.00 Fog/Mist CLR 73.4 73.4 100% 30.11 0.0
02 07:30 Calm 6.00 Fog/Mist CLR 71.6 71.6 100% 30.11 0.0
02 07:10 Calm 10.00 Fair CLR 71.6 71.6 100% 30.1 0.0
02 06:55 Calm 10.00 Fair CLR 69.8 69.8 100% 30.1 0.0
02 06:30 Calm 10.00 Fair CLR 69.8 69.8 100% 30.09 0.0
02 06:10 Calm 10.00 Fair CLR 69.8 69.8 100% 30.09 0.0
02 06:00 Calm 10.00 Fair CLR 69.8 69.8 100% 30.08 0.0
02 05:30 Calm 9.00 Fair CLR 69.8 69.8 100% 30.08 0.0
02 05:10 Calm 10.00 Fair CLR 69.8 69.8 100% 30.07 0.0
02 04:55 Calm 10.00 Fair CLR 69.8 69.8 100% 30.07 0.0
02 04:30 Calm 10.00 Fair CLR 71.6 71.6 100% 30.06 0.0
02 04:10 Calm 10.00 Fair CLR 71.6 71.6 100% 30.05 0.0
02 03:55 Calm 10.00 Fair CLR 71.6 71.6 100% 30.05 0.0
02 03:30 Calm 10.00 Fair CLR 71.6 71.6 100% 30.05 0.0
02 02:55 Calm 10.00 Fair CLR 71.6 71.6 100% 30.04 0.0
02 02:30 Calm 10.00 Fair CLR 71.6 71.6 100% 30.04 0.0
02 02:10 Calm 10.00 Fair CLR 71.6 71.6 100% 30.04 0.0
02 01:50 Calm 10.00 Fair CLR 71.6 71.6 100% 30.04 0.0
02 01:35 Calm 10.00 Fair CLR 71.6 71.6 100% 30.04 0.0
02 01:10 Calm 10.00 Fair CLR 73.4 73.4 100% 30.05 0.0
02 00:50 Calm 10.00 Fair CLR 73.4 73.4 100% 30.05 0.0
02 00:35 Calm 10.00 Fair CLR 73.4 73.4 100% 30.05 0.0
02 00:10 S 3 10.00 Fair CLR 73.4 73.4 100% 30.05 0.0
01 23:35 Calm 10.00 Fair CLR 75.2 75.2 100% 73 30.05 0.0
01 23:10 Calm 10.00 Fair CLR 75.2 75.2 100% 73 30.05 0.0
01 22:50 Calm 10.00 Fair CLR 75.2 75.2 100% 73 30.05 0.0
01 22:35 S 5 10.00 Fair CLR 75.2 75.2 100% 73 30.05 0.0
01 22:10 Calm 10.00 Fair CLR 75.2 75.2 100% 73 30.06 0.0
01 21:50 Calm 10.00 Fair CLR 77 77 100% 78 30.06 0.0
01 21:35 Calm 10.00 Fair CLR 77 77 100% 78 30.06 0.0
01 21:10 Calm 10.00 Fair CLR 78.8 78.8 100% 83 30.05 0.0
01 20:50 Calm 10.00 Fair CLR 78.8 78.8 100% 83 30.05 0.0
01 20:35 Calm 10.00 Fair CLR 78.8 78.8 100% 83 30.04 0.0
01 20:10 Calm 10.00 Fair CLR 82.4 77 84% 91 30.03 0.0
01 19:50 Calm 10.00 Fair CLR 82.4 77 84% 91 30.03 0.0
01 19:35 Calm 10.00 Fair CLR 84.2 77 79% 94 30.03 0.0
01 19:10 Calm 10.00 Fair CLR 86 75.2 70% 95 30.03 0.0
01 18:50 Calm 10.00 Fair CLR 91.4 66.2 44% 94 30.03 0.0
01 18:35 Calm 10.00 Fair CLR 93.2 66.2 41% 96 30.03 0.0
01 18:10 S 3 10.00 Fair CLR 93.2 64.4 39% 95 30.03 0.0
01 17:50 S 6 10.00 Fair CLR 95 64.4 36% 97 30.03 0.0
01 17:35 S 5 10.00 Fair CLR 95 66.2 39% 98 30.03 0.0
01 17:10 Vrbl 6 10.00 Fair CLR 95 66.2 39% 98 30.03 0.0
01 16:50 Calm 10.00 Fair CLR 96.8 66.2 37% 100 30.03 0.0
01 16:35 S 6 10.00 Fair CLR 95 66.2 39% 98 30.03 0.0
01 16:10 Calm 10.00 Fair CLR 96.8 66.2 37% 100 30.04 0.0
01 15:50 Calm 10.00 A Few Clouds FEW060 95 64.4 36% 97 30.04 0.0
01 15:35 Vrbl 3 10.00 A Few Clouds FEW060 96.8 64.4 34% 99 30.04 0.0
01 15:10 S 5 10.00 Partly Cloudy SCT060 96.8 66.2 37% 100 30.05 0.0
01 14:50 Calm 10.00 Mostly Cloudy BKN060 96.8 66.2 37% 100 30.05 0.0
01 14:35 Vrbl 3 10.00 Mostly Cloudy BKN060 96.8 66.2 37% 100 30.05 0.0
01 14:10 Calm 10.00 Fair CLR 96.8 66.2 37% 100 30.07 0.0
01 13:50 Calm 10.00 Fair CLR 95 66.2 39% 98 30.07 0.0
01 13:35 Calm 10.00 Fair CLR 95 66.2 39% 98 30.08 0.0
01 13:10 Vrbl 3 10.00 Partly Cloudy SCT055 93.2 66.2 41% 96 30.09 0.0
01 12:50 Calm 10.00 Partly Cloudy SCT050 SCT060 93.2 68 44% 98 30.09 0.0
01 12:35 Vrbl 3 10.00 Partly Cloudy FEW049 SCT060 93.2 68 44% 98 30.09 0.0
01 12:10 Calm 10.00 Mostly Cloudy SCT049 BKN055 93.2 68 44% 98 30.11 0.0
01 11:50 Calm 10.00 Fair CLR 91.4 68 46% 96 30.11 0.0
01 11:35 SW 7 10.00 Fair CLR 91.4 69.8 49% 97 30.12 0.0
01 11:10 SW 8 10.00 Fair CLR 91.4 69.8 49% 97 30.12 0.0
01 10:50 SW 8 10.00 Fair CLR 91.4 69.8 49% 97 30.13 0.0
01 10:35 Calm 10.00 Fair CLR 89.6 71.6 55% 96 30.13 0.0
01 10:10 Calm 10.00 Fair CLR 87.8 73.4 62% 96 30.13 0.0
01 09:50 Calm 9.00 Fair CLR 86 73.4 66% 93 30.12 0.0
01 09:35 Calm 10.00 Fair CLR 86 75.2 70% 95 30.12 0.0
01 09:10 Calm 10.00 Fair CLR 82.4 77 84% 91 30.12 0.0
01 08:50 Calm 10.00 Fair CLR 80.6 78.8 94% 88 30.12 0.0
01 08:35 Calm 10.00 Fair CLR 78.8 78.8 100% 83 30.13 0.0
01 08:10 Calm 9.00 Fair CLR 77 77 100% 78 30.13 0.0
01 07:50 Calm 8.00 Fair CLR 75.2 75.2 100% 73 30.12 0.0
01 07:35 Calm 6.00 Fog/Mist CLR 73.4 73.4 100% 30.12 0.0
01 07:10 Calm 8.00 Fair CLR 71.6 71.6 100% 30.11 0.0
01 06:50 Calm 8.00 Fair CLR 69.8 69.8 100% 30.1 0.0
01 06:35 Calm 9.00 Fair CLR 69.8 69.8 100% 30.1 0.0
01 06:10 Calm 8.00 Fair CLR 69.8 69.8 100% 30.09 0.0
01 05:50 Calm 8.00 Fair CLR 69.8 69.8 100% 30.09 0.0
01 05:35 Calm 10.00 Fair CLR 69.8 69.8 100% 30.09 0.0
01 05:10 Calm 10.00 Fair CLR 71.6 71.6 100% 30.09 0.0
01 04:50 Calm 10.00 Fair CLR 71.6 71.6 100% 30.08 0.0
01 04:35 Calm 10.00 Fair CLR 71.6 71.6 100% 30.08 0.0
01 04:10 Calm 10.00 Fair CLR 71.6 71.6 100% 30.08 0.0
01 03:50 Calm 10.00 Fair CLR 71.6 71.6 100% 30.07 0.0
01 03:35 Calm 10.00 Fair CLR 71.6 71.6 100% 30.07 0.0
01 03:10 Calm 10.00 Fair CLR 71.6 71.6 100% 30.07 0.0
01 02:50 Calm 9.00 Fair CLR 71.6 71.6 100% 30.07 0.0
01 02:35 Calm 9.00 Fair CLR 71.6 71.6 100% 30.06 0.0
01 01:50 Calm 10.00 Fair CLR 73.4 73.4 100% 30.07 0.0
01 01:35 Calm 7.00 Fair CLR 73.4 73.4 100% 30.07 0.0
01 01:10 Calm 10.00 Fair CLR 73.4 73.4 100% 30.07 0.0
01 00:50 Calm 10.00 Fair CLR 73.4 73.4 100% 30.07 0.0
01 00:35 SW 5 10.00 Fair CLR 73.4 73.4 100% 30.07 0.0
01 00:10 Calm 10.00 Fair CLR 73.4 73.4 100% 30.07 0.0
31 23:50 Calm 10.00 Fair CLR 75.2 75.2 100% 73 30.07 0.0
31 23:35 Calm 10.00 Fair CLR 75.2 75.2 100% 73 30.07 0.0
31 23:10 Calm 10.00 Fair CLR 75.2 75.2 100% 73 30.07 0.0
31 22:50 SW 5 10.00 Fair CLR 75.2 75.2 100% 73 30.07 0.0
31 22:35 Calm 10.00 Fair CLR 75.2 75.2 100% 73 30.07 0.0
31 21:50 Calm 10.00 Fair CLR 77 77 100% 78 30.07 0.0
31 21:35 S 3 10.00 Fair CLR 77 77 100% 78 30.06 0.0
31 21:10 Calm 10.00 Fair CLR 78.8 77 94% 83 30.06 0.0
31 20:50 S 5 10.00 Fair CLR 78.8 78.8 100% 83 30.05 0.0
31 20:35 Calm 10.00 Fair CLR 80.6 78.8 94% 88 30.05 0.0
31 20:10 Calm 10.00 Fair CLR 80.6 80.6 100% 89 30.05 0.0
31 19:50 Calm 10.00 A Few Clouds FEW060 82.4 80.6 94% 94 30.04 0.0
31 19:35 Calm 9.00 Fair CLR 84.2 78.8 84% 96 30.04 0.0
31 19:10 Calm 10.00 Fair CLR 86 75.2 70% 95 30.04 0.0
31 18:30 S 3 10.00 Fair CLR 91.4 68 46% 96 30.04 0.0
31 18:10 S 3 10.00 Fair CLR 91.4 68 46% 96 30.04 0.0
31 17:30 Vrbl 5 10.00 Fair CLR 93.2 66.2 41% 96 30.04 0.0
31 17:10 S 3 10.00 Fair CLR 95 66.2 39% 98 30.05 0.0
31 16:55 Calm 10.00 Fair CLR 93.2 66.2 41% 96 30.05 0.0
31 16:30 Calm 10.00 Fair CLR 95 68 41% 100 30.05 0.0
31 16:10 Calm 10.00 Fair CLR 95 66.2 39% 98 30.06 0.0
31 15:55 Calm 10.00 Fair CLR 95 66.2 39% 98 30.06 0.0
31 15:30 Calm 10.00 Fair CLR 95 64.4 36% 97 30.06 0.0
31 15:15 Calm 10.00 Fair CLR 95 66.2 39% 98 30.07 0.0
31 14:55 Vrbl 5 10.00 Fair CLR 95 68 41% 100 30.07 0.0
31 14:30 Vrbl 5 10.00 Fair CLR 93.2 66.2 41% 96 30.08 0.0
31 14:10 Vrbl 3 10.00 Fair CLR 93.2 68 44% 98 30.09 0.0
31 13:55 SW 7 10.00 A Few Clouds FEW048 FEW055 93.2 69.8 47% 99 30.09 0.0
31 13:30 Vrbl 5 10.00 Mostly Cloudy BKN048 93.2 69.8 47% 99 30.1 0.0
31 13:10 Vrbl 3 9.00 A Few Clouds FEW048 93.2 68 44% 98 30.11 0.0
31 12:55 S 5 10.00 Fair CLR 91.4 69.8 49% 97 30.11 0.0
31 12:35 S 5 10.00 Fair CLR 91.4 68 46% 96 30.12 0.0
31 12:10 Vrbl 5 10.00 Fair CLR 89.6 71.6 55% 96 30.13 0.0
31 11:55 Vrbl 7 10.00 A Few Clouds FEW055 89.6 71.6 55% 96 30.13 0.0
31 11:30 Vrbl 7 10.00 Partly Cloudy FEW040 SCT047 SCT055 91.4 71.6 52% 99 30.14 0.0
31 11:10 SW 6 G 13 10.00 Fair CLR 89.6 71.6 55% 96 30.14 0.0
31 10:55 Vrbl 5 G 14 10.00 Fair CLR 89.6 73.4 59% 98 30.14 0.0
31 10:30 S 6 10.00 Fair CLR 87.8 73.4 62% 96 30.14 0.0
31 10:10 SW 6 10.00 Fair CLR 87.8 75.2 66% 98 30.14 0.0
31 09:55 Vrbl 7 10.00 Fair CLR 86 75.2 70% 95 30.13 0.0
31 09:30 S 5 10.00 Fair CLR 84.2 77 79% 94 30.13 0.0
31 09:10 S 5 10.00 Fair CLR 82.4 77 84% 91 30.13 0.0
31 09:00 Vrbl 3 9.00 Fair CLR 82.4 78.8 89% 92 30.13 0.0
31 08:30 Calm 10.00 Fair CLR 78.8 78.8 100% 83 30.13 0.0
31 08:10 Calm 10.00 Fair CLR 75.2 75.2 100% 73 30.13 0.0
31 07:55 Calm 10.00 Fair CLR 75.2 75.2 100% 73 30.12 0.0
31 07:30 Calm 9.00 Fair CLR 71.6 71.6 100% 30.12 0.0
31 07:10 Calm 8.00 Fair CLR 71.6 71.6 100% 30.11 0.0
31 06:55 Calm 6.00 Fog/Mist CLR 69.8 69.8 100% 30.11 0.0
31 06:30 Calm 8.00 Fair CLR 69.8 69.8 100% 30.1 0.0
31 06:15 Calm 9.00 Fair CLR 69.8 69.8 100% 30.1 0.0
31 05:55 Calm 10.00 Fair CLR 69.8 69.8 100% 30.1 0.0
31 05:30 Calm 10.00 Fair CLR 69.8 69.8 100% 30.1 0.0
31 05:10 Calm 8.00 Fair CLR 69.8 69.8 100% 30.09 0.0
31 04:55 Calm 9.00 Fair CLR 69.8 69.8 100% 30.08 0.0
31 04:30 Calm 10.00 Fair CLR 69.8 69.8 100% 30.08 0.0
31 04:10 Calm 10.00 Fair CLR 69.8 69.8 100% 30.07 0.0
31 03:55 Calm 10.00 Fair CLR 69.8 69.8 100% 30.07 0.0
31 03:35 Calm 10.00 Fair CLR 69.8 69.8 100% 30.07 0.0
31 03:10 Calm 10.00 Fair CLR 69.8 69.8 100% 30.07 0.0
31 02:55 Calm 10.00 Fair CLR 71.6 71.6 100% 30.07 0.0
31 02:30 Calm 10.00 Fair CLR 71.6 71.6 100% 30.07 0.0
31 02:10 Calm 10.00 Fair CLR 71.6 71.6 100% 30.07 0.0
31 01:50 Calm 10.00 Fair CLR 71.6 71.6 100% 30.07 0.0
31 01:35 Calm 10.00 Fair CLR 71.6 71.6 100% 30.07 0.0
31 01:10 Calm 10.00 Fair CLR 71.6 71.6 100% 30.08 0.0
31 00:50 Calm 10.00 Fair CLR 71.6 71.6 100% 30.08 0.0
31 00:35 Calm 10.00 Fair CLR 71.6 71.6 100% 30.08 0.0
31 00:10 Calm 10.00 Fair CLR 73.4 73.4 100% 30.08 0.0
Date Time (cdt) Wind (mph) Vis. (mi.) Weather Sky Cond. Air Dwpt Max. Min. Relative Humidity Wind Chill (°F) Heat Index (°F) altimeter (in) sea level (mb) 1 hr 3 hr 6 hr
6 hour
Temperature (ºF) Pressure Precipitation (in)